Time;durP1;ratioP1;P1;durP2;ratioP2;P2;SDS_P1;SDS_P2;PMS_P1;PMS_P2;Temp;Humidity;BMP_temperature;BMP_pressure;BME280_temperature;BME280_humidity;BME280_pressure;Samples;Min_cycle;Max_cycle;Signal;HPM_P1;HPM_P2
2022/04/27 00:00:54;;;;;;;0.60;0.10;;;9.60;1.00;;;;;;5069606;28;20478;-80
2022/04/27 00:03:24;;;;;;;0.60;0.10;;;9.60;1.00;;;;;;5074815;28;20465;-80
2022/04/27 00:05:52;;;;;;;0.50;0.10;;;9.50;1.00;;;;;;5075387;28;20478;-79
2022/04/27 00:08:20;;;;;;;0.60;0.10;;;9.50;1.00;;;;;;5074559;28;20430;-80
2022/04/27 00:10:52;;;;;;;0.60;0.10;;;9.50;1.00;;;;;;5073421;28;20431;-80
2022/04/27 00:13:20;;;;;;;0.60;0.10;;;9.50;1.00;;;;;;5074539;28;20563;-81
2022/04/27 00:15:48;;;;;;;0.60;0.10;;;9.50;1.00;;;;;;5074372;28;20450;-81
2022/04/27 00:18:16;;;;;;;0.60;0.10;;;9.50;1.00;;;;;;5073662;28;20525;-81
2022/04/27 00:20:45;;;;;;;0.60;0.10;;;9.50;1.00;;;;;;5066442;28;20532;-80
2022/04/27 00:23:13;;;;;;;0.60;0.10;;;9.50;1.00;;;;;;5062123;28;20536;-81
2022/04/27 00:25:41;;;;;;;0.60;0.10;;;9.40;1.00;;;;;;5072568;28;20502;-80
2022/04/27 00:28:09;;;;;;;0.60;0.10;;;9.40;1.00;;;;;;5075144;28;20497;-80
2022/04/27 00:30:37;;;;;;;0.60;0.10;;;9.40;1.00;;;;;;5075599;28;20450;-81
2022/04/27 00:33:05;;;;;;;0.60;0.10;;;9.40;1.00;;;;;;5075582;28;20533;-81
2022/04/27 00:35:33;;;;;;;0.60;0.10;;;9.40;1.00;;;;;;5075296;28;20446;-81
2022/04/27 00:38:02;;;;;;;0.60;0.10;;;9.30;1.00;;;;;;5075292;28;20438;-81
2022/04/27 00:40:30;;;;;;;0.60;0.10;;;9.30;1.00;;;;;;5075397;28;20448;-81
2022/04/27 00:42:58;;;;;;;0.60;0.10;;;9.40;1.00;;;;;;5075616;28;20525;-81
2022/04/27 00:45:26;;;;;;;0.60;0.10;;;9.30;1.00;;;;;;5075686;28;20484;-81
2022/04/27 00:47:54;;;;;;;0.60;0.10;;;9.40;1.00;;;;;;5075148;28;20542;-80
2022/04/27 00:50:22;;;;;;;0.60;0.10;;;9.40;1.00;;;;;;5076224;28;20436;-81
2022/04/27 00:52:52;;;;;;;3.07;2.97;;;9.40;1.00;;;;;;5075841;28;20519;-80
2022/04/27 00:55:21;;;;;;;0.60;0.10;;;9.30;1.00;;;;;;5076261;28;20460;-81
2022/04/27 00:57:49;;;;;;;0.57;0.10;;;9.30;1.00;;;;;;5075652;28;20424;-80
2022/04/27 01:00:17;;;;;;;0.60;0.10;;;9.30;1.00;;;;;;5079518;28;20517;-80
2022/04/27 01:02:45;;;;;;;0.60;0.10;;;9.30;1.00;;;;;;5079310;28;20521;-80
2022/04/27 01:05:13;;;;;;;0.60;0.10;;;9.30;1.00;;;;;;5073605;28;20441;-80
2022/04/27 01:07:42;;;;;;;0.60;0.10;;;9.20;1.00;;;;;;5068498;28;20472;-80
2022/04/27 01:10:11;;;;;;;0.60;0.10;;;9.20;1.00;;;;;;5077387;28;20462;-80
2022/04/27 01:12:40;;;;;;;0.60;0.10;;;9.20;1.00;;;;;;5075650;28;20469;-82
2022/04/27 01:15:09;;;;;;;0.60;0.10;;;9.20;1.00;;;;;;5065907;28;20535;-80
2022/04/27 01:17:37;;;;;;;0.60;0.10;;;9.20;1.00;;;;;;5062752;28;20482;-81
2022/04/27 01:20:07;;;;;;;0.60;0.10;;;9.20;1.00;;;;;;5065085;28;20477;-78
2022/04/27 01:22:36;;;;;;;0.60;0.10;;;9.20;1.00;;;;;;5079465;28;20541;-79
2022/04/27 01:25:06;;;;;;;0.60;0.10;;;9.20;1.00;;;;;;5078787;28;20443;-80
2022/04/27 01:27:33;;;;;;;0.60;0.20;;;9.20;1.00;;;;;;5074584;28;20573;-80
2022/04/27 01:30:01;;;;;;;0.50;0.10;;;9.10;1.00;;;;;;5076108;28;20502;-78
2022/04/27 01:32:29;;;;;;;0.70;0.70;;;9.10;1.00;;;;;;5079000;28;20476;-79
2022/04/27 01:34:57;;;;;;;0.60;0.10;;;9.10;1.00;;;;;;5076793;28;20438;-79
2022/04/27 01:40:13;;;;;;;0.60;0.10;;;;;;;;;;5078274;28;20429;-80
2022/04/27 01:42:41;;;;;;;0.60;0.10;;;9.00;1.00;;;;;;5077785;28;20493;-80
2022/04/27 01:45:10;;;;;;;0.60;0.10;;;9.00;1.00;;;;;;5078104;28;20450;-81
2022/04/27 01:47:38;;;;;;;0.60;0.30;;;8.90;1.00;;;;;;5078017;28;20474;-80
2022/04/27 01:50:06;;;;;;;0.60;0.10;;;8.90;1.00;;;;;;5077688;28;20445;-81
2022/04/27 01:55:21;;;;;;;3.80;1.90;;;8.90;1.00;;;;;;5075886;28;20439;-80
2022/04/27 01:57:49;;;;;;;0.50;0.10;;;8.90;1.00;;;;;;5068673;28;20459;-80
2022/04/27 02:00:18;;;;;;;0.60;0.20;;;8.90;1.00;;;;;;5069398;28;20509;-80
2022/04/27 02:02:45;;;;;;;0.60;0.10;;;8.90;1.00;;;;;;5070671;28;20479;-80
2022/04/27 02:05:14;;;;;;;0.60;0.20;;;;;;;;;;5074614;28;20458;-79
2022/04/27 02:07:43;;;;;;;0.60;0.10;;;8.90;1.00;;;;;;5072670;28;20495;-81
2022/04/27 02:10:11;;;;;;;0.60;0.10;;;8.90;1.00;;;;;;5071398;28;20468;-80
2022/04/27 02:12:40;;;;;;;0.60;0.10;;;8.80;1.00;;;;;;5077206;28;20466;-79
2022/04/27 02:15:09;;;;;;;0.57;0.10;;;8.90;1.00;;;;;;5076685;28;20462;-80
2022/04/27 02:17:37;;;;;;;0.60;0.10;;;8.80;1.00;;;;;;5076243;28;20454;-79
2022/04/27 02:20:06;;;;;;;0.60;0.10;;;8.80;1.00;;;;;;5076273;28;20474;-80
2022/04/27 02:22:34;;;;;;;0.60;0.10;;;8.80;1.00;;;;;;5076808;28;20478;-81
2022/04/27 02:25:03;;;;;;;0.60;0.10;;;8.80;1.00;;;;;;5077046;28;20629;-81
2022/04/27 02:27:31;;;;;;;0.60;0.10;;;8.80;1.00;;;;;;5065293;28;20867;-81
2022/04/27 02:30:00;;;;;;;0.60;0.30;;;8.70;1.00;;;;;;5061483;28;20453;-81
2022/04/27 02:32:28;;;;;;;0.60;0.30;;;8.70;1.00;;;;;;5077244;28;20431;-79
2022/04/27 02:34:56;;;;;;;0.53;0.10;;;8.60;1.00;;;;;;5077494;28;20509;-80
2022/04/27 02:37:24;;;;;;;0.60;0.10;;;8.60;1.00;;;;;;5070390;28;20453;-80
2022/04/27 02:39:52;;;;;;;0.60;0.33;;;8.60;1.00;;;;;;5069754;28;20469;-81
2022/04/27 02:42:20;;;;;;;0.60;0.20;;;8.50;1.00;;;;;;5068906;28;20472;-81
2022/04/27 02:44:48;;;;;;;0.70;0.63;;;8.50;1.00;;;;;;5063368;28;20465;-80
2022/04/27 02:47:18;;;;;;;0.60;0.20;;;8.50;1.00;;;;;;5061574;28;20549;-80
2022/04/27 02:52:31;;;;;;;0.70;0.53;;;8.50;1.00;;;;;;5062606;28;20476;-79
2022/04/27 02:54:59;;;;;;;0.60;0.10;;;8.50;1.00;;;;;;5064065;28;20441;-81
2022/04/27 02:57:27;;;;;;;0.60;0.10;;;9.00;1.00;;;;;;5067454;28;20442;-82
2022/04/27 02:59:55;;;;;;;0.60;0.10;;;8.50;1.00;;;;;;5073409;28;20451;-81
2022/04/27 03:02:25;;;;;;;1.23;0.73;;;8.50;1.00;;;;;;5074939;28;20501;-81
2022/04/27 03:04:53;;;;;;;0.60;0.10;;;8.50;1.00;;;;;;5071209;28;20445;-81
2022/04/27 03:07:21;;;;;;;0.60;0.10;;;8.60;1.00;;;;;;5065815;28;20450;-81
2022/04/27 03:09:49;;;;;;;0.60;0.20;;;8.60;1.00;;;;;;5061813;28;20525;-81
2022/04/27 03:12:17;;;;;;;3.10;3.00;;;8.50;1.00;;;;;;5060195;28;20883;-81
2022/04/27 03:14:45;;;;;;;0.60;0.10;;;8.60;1.00;;;;;;5040605;28;20475;-80
2022/04/27 03:17:13;;;;;;;0.60;0.10;;;8.50;1.00;;;;;;5038906;28;20508;-81
2022/04/27 03:19:43;;;;;;;0.60;0.10;;;8.50;1.00;;;;;;5039980;28;20628;-81
2022/04/27 03:22:11;;;;;;;0.73;0.53;;;;;;;;;;5038244;28;20545;-80
2022/04/27 03:24:39;;;;;;;0.60;0.33;;;8.50;1.00;;;;;;5038394;28;20449;-79
2022/04/27 03:27:07;;;;;;;0.60;0.10;;;8.50;1.00;;;;;;5052854;28;20989;-81
2022/04/27 03:29:36;;;;;;;0.50;0.10;;;8.50;1.00;;;;;;5057528;28;20493;-80
2022/04/27 03:32:05;;;;;;;0.50;0.10;;;8.50;1.00;;;;;;5058415;28;20468;-81
2022/04/27 03:34:33;;;;;;;0.60;0.10;;;8.50;1.00;;;;;;5058512;28;20468;-82
2022/04/27 03:37:03;;;;;;;0.60;0.10;;;8.40;1.00;;;;;;5058995;28;20943;-80
2022/04/27 03:39:31;;;;;;;1.67;1.57;;;8.40;1.00;;;;;;5058852;28;20459;-81
2022/04/27 03:42:10;;;;;;;0.70;0.67;;;8.40;1.00;;;;;;5061562;28;20429;-80
2022/04/27 03:44:38;;;;;;;0.57;0.10;;;8.40;1.00;;;;;;5075671;28;20446;-79
2022/04/27 03:47:06;;;;;;;0.50;0.10;;;8.40;1.00;;;;;;5075847;28;20428;-79
2022/04/27 03:49:34;;;;;;;0.60;0.10;;;8.40;1.00;;;;;;5062058;28;20994;-81
2022/04/27 03:52:05;;;;;;;0.60;0.10;;;8.40;1.00;;;;;;5059601;28;20441;-81
2022/04/27 03:54:33;;;;;;;0.50;0.10;;;;;;;;;;5060474;28;20461;-79
2022/04/27 03:57:01;;;;;;;1.47;1.37;;;;;;;;;;5070946;28;20438;-79
2022/04/27 03:59:29;;;;;;;0.60;0.20;;;8.30;1.00;;;;;;5076389;28;20426;-79
2022/04/27 04:01:57;;;;;;;0.60;0.10;;;8.30;1.00;;;;;;5071960;28;20506;-81
2022/04/27 04:04:25;;;;;;;1.03;0.87;;;8.30;1.00;;;;;;5051146;28;20997;-79
2022/04/27 04:06:53;;;;;;;0.60;0.10;;;;;;;;;;5061587;28;20481;-79
2022/04/27 04:09:23;;;;;;;0.60;0.10;;;8.30;1.00;;;;;;5063059;28;20498;-80
2022/04/27 04:11:51;;;;;;;0.57;0.10;;;8.20;1.00;;;;;;5060893;28;20972;-79
2022/04/27 04:14:19;;;;;;;0.50;0.10;;;8.20;1.00;;;;;;5058850;28;20476;-82
2022/04/27 04:16:46;;;;;;;0.60;0.20;;;8.20;1.00;;;;;;5060397;28;20438;-81
2022/04/27 04:19:14;;;;;;;0.80;0.80;;;8.20;1.00;;;;;;5070937;28;20445;-79
2022/04/27 04:21:42;;;;;;;0.60;0.20;;;8.20;1.00;;;;;;5074040;28;20493;-77
2022/04/27 04:24:12;;;;;;;0.50;0.10;;;8.20;1.00;;;;;;5068171;28;20473;-80
2022/04/27 04:29:42;;;;;;;0.50;0.10;;;8.20;1.00;;;;;;4994749;28;20491;-77
2022/04/27 04:32:10;;;;;;;0.60;0.10;;;8.20;1.00;;;;;;4974666;28;20532;-79
2022/04/27 04:34:39;;;;;;;2.00;1.80;;;;;;;;;;5006508;28;20517;-82
2022/04/27 04:37:06;;;;;;;0.60;0.20;;;8.20;1.00;;;;;;5063545;28;20462;-81
2022/04/27 04:39:35;;;;;;;0.53;0.10;;;8.20;1.00;;;;;;5062258;28;20518;-82
2022/04/27 04:42:07;;;;;;;1.03;0.77;;;8.10;1.00;;;;;;5065225;28;20442;-80
2022/04/27 04:44:35;;;;;;;0.60;0.20;;;8.10;1.00;;;;;;5063986;28;20508;-81
2022/04/27 04:47:04;;;;;;;0.77;0.77;;;8.10;1.00;;;;;;5066183;28;20441;-81
2022/04/27 04:49:32;;;;;;;0.60;0.40;;;8.10;1.00;;;;;;5064295;28;20556;-82
2022/04/27 04:52:00;;;;;;;1.03;0.87;;;8.10;1.00;;;;;;5063956;28;20474;-82
2022/04/27 04:54:28;;;;;;;1.00;0.57;;;8.20;1.00;;;;;;5062243;28;20610;-81
2022/04/27 04:56:55;;;;;;;1.60;1.50;;;8.20;1.00;;;;;;5062828;28;20460;-81
2022/04/27 04:59:25;;;;;;;2.53;0.70;;;8.20;1.00;;;;;;5064535;28;20815;-81
2022/04/27 05:01:53;;;;;;;2.30;0.97;;;8.20;1.00;;;;;;5064587;28;20449;-83
2022/04/27 05:04:22;;;;;;;0.50;0.20;;;8.20;1.00;;;;;;5062682;28;20497;-84
2022/04/27 05:06:50;;;;;;;0.60;0.10;;;8.20;1.00;;;;;;5062887;28;20536;-84
2022/04/27 05:09:17;;;;;;;0.50;0.10;;;8.30;1.00;;;;;;5068927;28;20527;-80
2022/04/27 05:11:45;;;;;;;0.50;0.10;;;8.40;1.00;;;;;;5078156;28;20434;-82
2022/04/27 05:14:14;;;;;;;0.60;0.10;;;;;;;;;;5074908;28;20450;-80
2022/04/27 05:16:43;;;;;;;0.60;0.10;;;8.50;1.00;;;;;;5077502;28;20466;-81
2022/04/27 05:19:11;;;;;;;0.60;0.40;;;8.60;1.00;;;;;;5077855;28;20442;-78
2022/04/27 05:21:39;;;;;;;0.70;0.60;;;8.60;1.00;;;;;;5072182;28;20473;-82
2022/04/27 05:24:07;;;;;;;0.50;0.10;;;8.60;1.00;;;;;;5065984;28;20462;-82
2022/04/27 05:26:35;;;;;;;0.60;0.10;;;8.60;1.00;;;;;;5063709;28;20448;-73
2022/04/27 05:31:57;;;;;;;0.53;0.10;;;8.70;1.00;;;;;;5077057;28;20410;-80
2022/04/27 05:34:29;;;;;;;0.60;0.10;;;8.80;1.00;;;;;;5069726;28;20883;-80
2022/04/27 05:36:58;;;;;;;0.53;0.10;;;8.90;1.00;;;;;;5073350;28;20448;-80
2022/04/27 05:39:26;;;;;;;0.60;0.10;;;8.90;1.00;;;;;;5075141;28;20526;-79
2022/04/27 05:41:54;;;;;;;0.53;0.17;;;8.90;1.00;;;;;;5077417;28;20513;-82
2022/04/27 05:44:23;;;;;;;0.60;0.10;;;8.90;1.00;;;;;;5068467;28;20599;-83
2022/04/27 05:46:54;;;;;;;0.50;0.10;;;;;;;;;;5061444;28;20457;-81
2022/04/27 05:49:22;;;;;;;0.57;0.10;;;9.00;1.00;;;;;;5061780;28;21151;-82
2022/04/27 05:51:50;;;;;;;0.50;0.10;;;9.00;1.00;;;;;;5063140;28;20477;-83
2022/04/27 05:54:19;;;;;;;0.83;0.83;;;9.00;1.00;;;;;;5062369;28;21067;-82
2022/04/27 05:56:47;;;;;;;0.50;0.10;;;9.00;1.00;;;;;;5063307;28;20442;-80
2022/04/27 05:59:17;;;;;;;0.60;0.10;;;;;;;;;;5062972;28;20445;-81
2022/04/27 06:01:45;;;;;;;0.60;0.10;;;9.00;1.00;;;;;;5063106;28;20457;-81
2022/04/27 06:04:19;;;;;;;0.60;0.20;;;;;;;;;;5056709;28;20478;-82
2022/04/27 06:06:48;;;;;;;0.93;0.77;;;9.00;1.00;;;;;;5059000;28;20434;-80
2022/04/27 06:09:16;;;;;;;0.60;0.10;;;9.00;1.00;;;;;;5061625;28;20568;-80
2022/04/27 06:11:44;;;;;;;0.60;0.10;;;9.00;1.00;;;;;;5059549;28;20459;-82
2022/04/27 06:14:12;;;;;;;0.60;0.10;;;9.10;1.00;;;;;;5069135;28;20485;-82
2022/04/27 06:16:40;;;;;;;1.13;1.03;;;9.10;1.00;;;;;;5072926;28;20458;-81
2022/04/27 06:19:09;;;;;;;0.60;0.10;;;9.20;1.00;;;;;;5070471;28;20508;-80
2022/04/27 06:21:39;;;;;;;0.60;0.10;;;9.20;1.00;;;;;;5052811;28;20455;-83
2022/04/27 06:24:07;;;;;;;0.60;0.10;;;9.30;1.00;;;;;;5052061;28;20486;-79
2022/04/27 06:26:36;;;;;;;0.60;0.10;;;9.40;1.00;;;;;;5053002;28;20478;-80
2022/04/27 06:29:05;;;;;;;0.60;0.10;;;9.50;1.00;;;;;;5055114;28;20882;-79
2022/04/27 06:31:33;;;;;;;0.60;0.10;;;;;;;;;;5053871;28;20530;-80
2022/04/27 06:34:01;;;;;;;0.57;0.10;;;9.60;1.00;;;;;;5055653;28;20482;-84
2022/04/27 06:36:31;;;;;;;0.60;0.10;;;9.70;1.00;;;;;;5053726;28;20439;-79
2022/04/27 06:39:01;;;;;;;1.17;0.40;;;9.70;1.00;;;;;;5066570;28;20442;-79
2022/04/27 06:41:29;;;;;;;3.53;0.73;;;9.80;1.00;;;;;;5071978;28;20540;-82
2022/04/27 06:43:57;;;;;;;0.97;0.93;;;9.80;1.00;;;;;;5065314;28;20478;-82
2022/04/27 06:46:25;;;;;;;1.13;0.57;;;9.90;1.00;;;;;;5061358;28;20448;-81
2022/04/27 06:48:55;;;;;;;2.10;1.70;;;10.00;1.00;;;;;;5060948;28;20457;-81
2022/04/27 06:51:23;;;;;;;0.60;0.43;;;10.00;1.00;;;;;;5061204;28;20561;-79
2022/04/27 06:53:52;;;;;;;2.50;1.33;;;;;;;;;;5059696;28;20461;-80
2022/04/27 06:56:21;;;;;;;1.00;1.00;;;10.00;1.00;;;;;;5059960;28;20437;-80
2022/04/27 06:58:50;;;;;;;1.40;1.17;;;10.10;1.00;;;;;;5059389;28;20514;-82
2022/04/27 07:01:18;;;;;;;0.63;0.30;;;10.10;1.00;;;;;;5060447;28;20447;-82
2022/04/27 07:03:46;;;;;;;0.80;0.40;;;10.10;1.00;;;;;;5061209;28;20516;-82
2022/04/27 07:06:15;;;;;;;0.80;0.70;;;10.20;1.00;;;;;;5059351;28;20493;-80
2022/04/27 07:08:43;;;;;;;7.37;3.50;;;10.20;1.00;;;;;;5065113;28;20456;-82
2022/04/27 07:11:11;;;;;;;0.87;0.87;;;10.20;1.00;;;;;;5059876;28;20553;-82
2022/04/27 07:13:43;;;;;;;0.60;0.10;;;;;;;;;;5071059;28;20830;-81
2022/04/27 07:16:11;;;;;;;1.53;1.43;;;10.20;1.00;;;;;;5073491;28;20444;-78
2022/04/27 07:18:39;;;;;;;0.70;0.50;;;10.30;1.00;;;;;;5068856;28;20439;-81
2022/04/27 07:21:08;;;;;;;0.60;0.20;;;;;;;;;;5067726;28;20464;-81
2022/04/27 07:23:39;;;;;;;1.10;1.00;;;10.50;1.00;;;;;;5075695;28;20580;-81
2022/04/27 07:26:07;;;;;;;2.20;2.03;;;;;;;;;;5073859;28;20450;-85
2022/04/27 07:28:36;;;;;;;2.30;1.37;;;10.50;1.00;;;;;;5068608;28;20430;-82
2022/04/27 07:31:06;;;;;;;4.10;2.50;;;10.60;1.00;;;;;;5060018;28;20569;-82
2022/04/27 07:33:40;;;;;;;1.03;0.93;;;10.60;1.00;;;;;;5062052;28;20539;-82
2022/04/27 07:36:09;;;;;;;0.70;0.57;;;10.60;1.00;;;;;;5063453;28;20488;-83
2022/04/27 07:38:38;;;;;;;2.40;1.50;;;10.70;1.00;;;;;;5062631;28;20473;-83
2022/04/27 07:41:06;;;;;;;0.60;0.10;;;10.90;1.00;;;;;;5060576;28;20419;-80
2022/04/27 07:43:34;;;;;;;0.80;0.50;;;10.90;1.00;;;;;;5059460;28;20572;-82
2022/04/27 07:46:05;;;;;;;0.60;0.20;;;11.00;1.00;;;;;;5066502;28;20445;-83
2022/04/27 07:48:37;;;;;;;0.60;0.20;;;;;;;;;;5061188;28;20500;-83
2022/04/27 07:51:06;;;;;;;0.60;0.10;;;11.30;1.00;;;;;;5070102;28;20538;-80
2022/04/27 07:53:34;;;;;;;1.17;0.60;;;11.40;1.00;;;;;;5074800;28;20468;-82
2022/04/27 07:56:04;;;;;;;0.80;0.30;;;11.40;1.00;;;;;;5074849;28;20449;-82
2022/04/27 07:58:32;;;;;;;0.60;0.10;;;11.50;1.00;;;;;;5067669;28;20454;-84
2022/04/27 08:01:03;;;;;;;1.23;1.13;;;;;;;;;;5062512;28;20477;-81
2022/04/27 08:03:40;;;;;;;0.60;0.10;;;;;;;;;;5064760;28;20567;-81
2022/04/27 08:06:09;;;;;;;3.80;3.60;;;;;;;;;;5066791;28;20809;-81
2022/04/27 08:08:42;;;;;;;0.70;0.70;;;;;;;;;;5065334;28;20526;-83
2022/04/27 08:11:15;;;;;;;3.70;3.27;;;;;;;;;;5062787;28;20478;-80
2022/04/27 08:13:48;;;;;;;4.00;2.00;;;;;;;;;;5062350;28;20472;-79
2022/04/27 08:16:19;;;;;;;0.60;0.10;;;;;;;;;;5062348;28;20553;-82
2022/04/27 08:18:50;;;;;;;0.80;0.73;;;;;;;;;;5063006;28;20815;-79
2022/04/27 08:21:26;;;;;;;4.10;3.80;;;;;;;;;;5061176;28;20460;-80
2022/04/27 08:23:59;;;;;;;0.60;0.30;;;;;;;;;;5060448;28;20519;-79
2022/04/27 08:26:31;;;;;;;7.90;2.00;;;;;;;;;;5040254;28;20992;-80
2022/04/27 08:29:00;;;;;;;0.60;0.10;;;;;;;;;;5040908;28;20443;-79
2022/04/27 08:31:35;;;;;;;1.43;1.27;;;;;;;;;;5055397;28;20509;-80
2022/04/27 08:34:06;;;;;;;1.67;0.43;;;;;;;;;;5063206;28;20478;-81
2022/04/27 08:36:43;;;;;;;6.90;5.40;;;;;;;;;;5060815;28;20446;-79
2022/04/27 08:39:13;;;;;;;2.13;1.80;;;;;;;;;;5059729;28;20467;-79
2022/04/27 08:41:45;;;;;;;2.97;2.77;;;;;;;;;;5062391;28;20959;-80
2022/04/27 08:44:13;;;;;;;1.23;1.10;;;12.30;1.00;;;;;;5060680;28;20510;-77
2022/04/27 08:46:43;;;;;;;0.60;0.10;;;12.30;1.00;;;;;;5060341;28;20462;-79
2022/04/27 08:49:13;;;;;;;0.63;0.27;;;12.40;1.00;;;;;;5048204;28;20438;-78
2022/04/27 08:51:42;;;;;;;0.60;0.20;;;12.50;1.00;;;;;;5060365;28;20511;-79
2022/04/27 08:54:17;;;;;;;0.60;0.10;;;12.60;1.00;;;;;;5068685;28;20474;-79
2022/04/27 08:56:46;;;;;;;1.13;1.03;;;12.70;1.00;;;;;;5077001;28;20471;-78
2022/04/27 08:59:23;;;;;;;0.70;0.23;;;;;;;;;;5076220;28;20450;-80
2022/04/27 09:01:54;;;;;;;2.00;1.90;;;;;;;;;;5070749;28;20433;-78
2022/04/27 09:04:26;;;;;;;1.03;0.93;;;;;;;;;;5063556;28;20469;-80
2022/04/27 09:06:54;;;;;;;2.90;2.70;;;12.90;1.00;;;;;;5070420;28;20467;-78
2022/04/27 09:09:36;;;;;;;1.47;0.60;;;13.00;1.00;;;;;;5068446;28;20449;-80
2022/04/27 09:12:13;;;;;;;0.70;0.30;;;13.00;1.00;;;;;;5066842;28;20472;-79
2022/04/27 09:14:44;;;;;;;0.60;0.10;;;13.10;1.00;;;;;;5065426;28;20467;-79
2022/04/27 09:23:04;;;;;;;0.70;0.20;;;13.30;1.00;;;;;;5061601;28;20551;-80
2022/04/27 09:25:33;;;;;;;1.77;1.13;;;13.30;1.00;;;;;;5060086;28;20824;-79
2022/04/27 09:28:24;;;;;;;1.00;0.83;;;13.40;1.00;;;;;;5042151;28;20435;-80
2022/04/27 09:30:53;;;;;;;0.60;0.10;;;13.50;1.00;;;;;;5054547;28;20601;-79
2022/04/27 09:33:31;;;;;;;3.50;1.90;;;13.70;1.00;;;;;;5060492;28;20509;-79
2022/04/27 09:36:01;;;;;;;0.60;0.20;;;13.70;1.00;;;;;;5060077;28;20454;-81
2022/04/27 09:38:40;;;;;;;0.60;0.10;;;13.80;1.00;;;;;;5059888;28;20435;-80
2022/04/27 09:41:08;;;;;;;0.60;0.30;;;13.80;1.00;;;;;;5058996;28;20622;-82
2022/04/27 09:43:44;;;;;;;1.17;0.77;;;13.80;1.00;;;;;;5038858;28;20541;-79
2022/04/27 09:46:22;;;;;;;0.60;0.30;;;13.90;1.00;;;;;;5045473;28;20452;-80
2022/04/27 09:49:09;;;;;;;1.13;1.13;;;13.90;1.00;;;;;;5053702;28;20428;-80
2022/04/27 09:52:00;;;;;;;0.60;0.20;;;14.10;1.00;;;;;;5043623;28;20992;-81
2022/04/27 09:54:30;;;;;;;4.00;3.00;;;14.10;1.00;;;;;;5039499;28;21057;-80
2022/04/27 09:57:00;;;;;;;0.60;0.10;;;14.30;1.00;;;;;;5039970;28;20519;-80
2022/04/27 09:59:30;;;;;;;0.60;0.27;;;14.40;1.00;;;;;;5039969;28;20448;-80
2022/04/27 10:02:01;;;;;;;0.60;0.10;;;14.50;1.00;;;;;;5041415;28;20488;-81
2022/04/27 10:04:30;;;;;;;0.60;0.10;;;14.70;1.00;;;;;;5039943;28;20476;-80
2022/04/27 10:07:01;;;;;;;0.60;0.20;;;17.60;1.00;;;;;;5041529;28;20461;-81
2022/04/27 10:09:30;;;;;;;9.60;9.17;;;14.80;1.00;;;;;;5060546;28;20448;-79
2022/04/27 10:12:14;;;;;;;1.00;0.70;;;14.90;1.00;;;;;;5070710;28;20478;-81
2022/04/27 10:14:42;;;;;;;0.60;0.10;;;14.90;1.00;;;;;;5074225;28;20446;-81
2022/04/27 10:17:12;;;;;;;0.60;0.10;;;;;;;;;;5058682;28;20515;-80
2022/04/27 10:19:45;;;;;;;0.60;0.10;;;15.20;1.00;;;;;;5050800;28;20990;-80
2022/04/27 10:22:30;;;;;;;0.60;0.23;;;15.40;1.00;;;;;;5058536;28;20430;-81
2022/04/27 10:25:05;;;;;;;0.60;0.47;;;15.40;1.00;;;;;;5056916;28;20974;-81
2022/04/27 10:27:38;;;;;;;0.70;0.40;;;15.30;1.00;;;;;;5058046;28;20956;-80
2022/04/27 10:30:08;;;;;;;1.43;1.33;;;15.30;1.00;;;;;;5061642;28;20466;-81
2022/04/27 10:32:41;;;;;;;0.80;0.50;;;15.10;1.00;;;;;;5060178;28;20572;-81
2022/04/27 10:35:27;;;;;;;1.00;0.70;;;15.20;1.00;;;;;;5070084;28;20522;-80
2022/04/27 10:38:02;;;;;;;2.90;2.10;;;15.30;1.00;;;;;;5072635;28;20431;-80
2022/04/27 10:40:32;;;;;;;0.60;0.10;;;15.40;1.00;;;;;;5072246;28;20431;-81
2022/04/27 10:43:26;;;;;;;1.13;0.80;;;15.50;1.00;;;;;;5068111;28;20477;-81
2022/04/27 10:45:54;;;;;;;0.60;0.30;;;15.60;1.00;;;;;;5073813;28;20448;-79
2022/04/27 10:48:27;;;;;;;0.60;0.10;;;15.80;1.00;;;;;;5079975;28;20465;-81
2022/04/27 10:50:56;;;;;;;0.60;0.20;;;15.90;99.90;;;;;;5077505;28;20502;-80
2022/04/27 10:53:27;;;;;;;0.80;0.73;;;16.00;99.90;;;;;;5075740;28;20497;-81
2022/04/27 10:56:22;;;;;;;1.37;0.50;;;16.00;99.90;;;;;;5046521;28;20413;-82
2022/04/27 10:58:50;;;;;;;0.60;0.13;;;16.20;99.90;;;;;;5039602;28;20455;-82
2022/04/27 11:01:20;;;;;;;0.90;0.57;;;16.10;99.90;;;;;;5039745;28;20443;-82
2022/04/27 11:04:01;;;;;;;2.80;0.70;;;16.30;99.90;;;;;;5039419;28;20569;-82
2022/04/27 11:07:05;;;;;;;0.70;0.30;;;16.30;99.90;;;;;;5040421;28;20470;-81
2022/04/27 11:10:09;;;;;;;0.60;0.20;;;16.40;99.90;;;;;;5059288;28;20448;-81
2022/04/27 11:12:38;;;;;;;0.60;0.10;;;16.60;99.90;;;;;;5064281;28;20512;-80
2022/04/27 11:15:10;;;;;;;2.00;0.83;;;16.70;99.90;;;;;;5064984;28;20446;-80
2022/04/27 11:17:40;;;;;;;0.60;0.10;;;16.70;99.90;;;;;;5059322;28;20539;-81
2022/04/27 11:20:23;;;;;;;0.60;0.10;;;;;;;;;;5063154;28;20436;-80
2022/04/27 11:22:51;;;;;;;0.60;0.10;;;17.10;99.90;;;;;;5077260;28;20509;-80
2022/04/27 11:25:29;;;;;;;0.60;0.10;;;17.20;99.90;;;;;;5077624;28;20440;-80
2022/04/27 11:27:57;;;;;;;0.60;0.10;;;17.20;99.90;;;;;;5073608;28;20440;-80
2022/04/27 11:30:32;;;;;;;0.60;0.20;;;17.40;99.90;;;;;;5075724;28;20441;-79
2022/04/27 11:33:13;;;;;;;0.70;0.50;;;17.40;99.90;;;;;;5075499;28;20476;-80
2022/04/27 11:35:45;;;;;;;1.10;0.93;;;17.40;99.90;;;;;;5073878;28;20432;-79
2022/04/27 11:38:22;;;;;;;0.60;0.20;;;17.40;99.90;;;;;;5070436;28;20499;-80
2022/04/27 11:40:56;;;;;;;0.60;0.20;;;17.40;99.90;;;;;;5069883;28;20451;-81
2022/04/27 11:43:28;;;;;;;0.83;0.50;;;17.40;99.90;;;;;;5072035;28;20458;-81
2022/04/27 11:45:57;;;;;;;0.67;0.40;;;17.40;99.90;;;;;;5066376;28;20447;-80
2022/04/27 11:48:34;;;;;;;0.90;0.50;;;17.40;99.90;;;;;;5064065;28;20844;-82
2022/04/27 11:51:06;;;;;;;1.33;1.03;;;17.30;99.90;;;;;;5059279;28;20523;-79
2022/04/27 11:53:43;;;;;;;0.60;0.20;;;17.30;99.90;;;;;;5064749;28;20486;-80
2022/04/27 11:56:12;;;;;;;0.60;0.10;;;17.60;99.90;;;;;;5061620;28;20514;-80
2022/04/27 11:58:45;;;;;;;0.80;0.30;;;;;;;;;;5061330;28;20418;-80
2022/04/27 12:01:21;;;;;;;0.90;0.30;;;17.40;99.90;;;;;;5063947;28;20611;-80
2022/04/27 12:03:50;;;;;;;0.60;0.10;;;17.50;99.90;;;;;;5066203;28;20463;-81
2022/04/27 12:06:19;;;;;;;0.60;0.10;;;17.50;99.90;;;;;;5059553;28;21055;-75
2022/04/27 12:08:47;;;;;;;0.60;0.10;;;17.90;99.90;;;;;;5065566;28;20466;-81
2022/04/27 12:11:22;;;;;;;0.60;0.10;;;18.10;99.90;;;;;;5060583;28;20481;-81
2022/04/27 12:13:54;;;;;;;0.60;0.10;;;18.20;99.90;;;;;;5058991;28;20484;-81
2022/04/27 12:16:22;;;;;;;0.60;0.10;;;18.20;99.90;;;;;;5058710;28;20532;-82
2022/04/27 12:18:55;;;;;;;0.60;0.20;;;18.30;99.90;;;;;;5058032;28;20436;-81
2022/04/27 12:21:24;;;;;;;0.73;0.47;;;18.30;99.90;;;;;;5059801;28;20465;-81
2022/04/27 12:23:56;;;;;;;0.60;0.20;;;18.00;99.90;;;;;;5066361;28;20457;-81
2022/04/27 12:26:26;;;;;;;0.93;0.70;;;17.90;99.90;;;;;;5060453;28;20465;-81
2022/04/27 12:28:54;;;;;;;0.60;0.20;;;18.10;99.90;;;;;;5057781;28;20462;-80
2022/04/27 12:31:31;;;;;;;0.60;0.20;;;18.10;99.90;;;;;;5057555;28;20455;-81
2022/04/27 12:33:59;;;;;;;0.60;0.20;;;;;;;;;;5067080;28;20504;-81
2022/04/27 12:39:20;;;;;;;0.60;0.20;;;18.60;99.90;;;;;;5070491;28;20433;-82
2022/04/27 12:41:52;;;;;;;0.60;0.10;;;18.60;99.90;;;;;;5060323;28;20529;-81
2022/04/27 12:44:24;;;;;;;0.60;0.10;;;18.70;99.90;;;;;;5059524;28;20484;-81
2022/04/27 12:46:58;;;;;;;0.70;0.50;;;18.70;99.90;;;;;;5060269;28;20441;-83
2022/04/27 12:49:27;;;;;;;0.77;0.60;;;18.70;99.90;;;;;;5062038;28;20463;-82
2022/04/27 12:51:57;;;;;;;0.60;0.10;;;;;;;;;;5062556;28;20438;-81
2022/04/27 12:54:34;;;;;;;0.60;0.10;;;19.00;99.90;;;;;;5062358;28;20480;-81
2022/04/27 12:57:04;;;;;;;0.80;0.20;;;19.20;99.90;;;;;;5060543;28;20454;-83
2022/04/27 12:59:33;;;;;;;0.60;0.10;;;;;;;;;;5065070;28;20475;-82
2022/04/27 13:02:04;;;;;;;0.60;0.10;;;19.60;99.90;;;;;;5062415;28;20516;-81
2022/04/27 13:04:32;;;;;;;0.60;0.20;;;19.80;99.90;;;;;;5065756;28;20468;-81
2022/04/27 13:07:02;;;;;;;0.60;0.10;;;19.80;99.90;;;;;;5062379;28;20469;-81
2022/04/27 13:12:18;;;;;;;1.07;0.73;;;20.10;99.90;;;;;;5069909;28;20522;-82
2022/04/27 13:14:46;;;;;;;0.60;0.10;;;;;;;;;;5067093;28;20576;-82
2022/04/27 13:17:18;;;;;;;0.60;0.10;;;20.10;99.90;;;;;;5066819;28;20462;-82
2022/04/27 13:19:46;;;;;;;0.60;0.10;;;20.00;99.90;;;;;;5057899;28;20455;-83
2022/04/27 13:22:14;;;;;;;0.60;0.10;;;;;;;;;;5043815;28;20510;-80
2022/04/27 13:24:42;;;;;;;0.60;0.20;;;19.40;99.90;;;;;;5053625;28;20488;-77
2022/04/27 13:27:28;;;;;;;7.83;3.03;;;;;;;;;;5075613;28;20725;-80
2022/04/27 13:29:57;;;;;;;0.60;0.10;;;;;;;;;;5077546;28;20449;-82
2022/04/27 13:32:25;;;;;;;0.60;0.10;;;18.60;99.90;;;;;;5066850;28;20455;-82
2022/04/27 13:34:53;;;;;;;0.80;0.47;;;;;;;;;;5068945;28;20519;-82
2022/04/27 13:37:24;;;;;;;1.67;1.57;;;;;;;;;;5067803;28;20465;-83
2022/04/27 13:39:53;;;;;;;0.60;0.20;;;18.20;99.90;;;;;;5063245;28;20470;-81
2022/04/27 13:42:21;;;;;;;0.60;0.17;;;18.10;99.90;;;;;;5062670;28;20449;-81
2022/04/27 13:44:51;;;;;;;0.60;0.20;;;18.10;99.90;;;;;;5063260;28;20536;-82
2022/04/27 13:47:19;;;;;;;0.60;0.20;;;;;;;;;;5068712;28;20472;-82
2022/04/27 13:49:53;;;;;;;0.60;0.10;;;17.80;99.90;;;;;;5068716;28;20488;-81
2022/04/27 13:52:43;;;;;;;0.60;0.20;;;17.70;99.90;;;;;;5077654;28;20503;-80
2022/04/27 13:55:12;;;;;;;0.60;0.20;;;;;;;;;;5076490;28;20489;-81
2022/04/27 13:57:40;;;;;;;0.60;0.20;;;17.70;99.90;;;;;;5067364;28;20455;-80